sensor_id;sensor_type;location;lat;lon;timestamp;temperature;humidity
20045;DHT22;10183;47.808;9.476;2023-03-26T00:00:45;5.80;99.90
20045;DHT22;10183;47.808;9.476;2023-03-26T00:03:15;5.90;99.90
20045;DHT22;10183;47.808;9.476;2023-03-26T00:05:42;5.80;99.90
20045;DHT22;10183;47.808;9.476;2023-03-26T00:08:09;5.80;99.90
20045;DHT22;10183;47.808;9.476;2023-03-26T00:10:37;5.70;99.90
20045;DHT22;10183;47.808;9.476;2023-03-26T00:13:06;5.70;99.90
20045;DHT22;10183;47.808;9.476;2023-03-26T00:15:34;5.60;99.90
20045;DHT22;10183;47.808;9.476;2023-03-26T00:18:00;5.60;99.90
20045;DHT22;10183;47.808;9.476;2023-03-26T00:20:28;5.60;99.90
20045;DHT22;10183;47.808;9.476;2023-03-26T00:22:55;5.50;99.90
20045;DHT22;10183;47.808;9.476;2023-03-26T00:25:22;5.50;99.90
20045;DHT22;10183;47.808;9.476;2023-03-26T00:27:51;5.50;99.90
20045;DHT22;10183;47.808;9.476;2023-03-26T00:30:17;5.60;99.90
20045;DHT22;10183;47.808;9.476;2023-03-26T00:32:43;5.50;99.90
20045;DHT22;10183;47.808;9.476;2023-03-26T00:35:10;5.80;99.90
20045;DHT22;10183;47.808;9.476;2023-03-26T00:37:38;5.80;99.90
20045;DHT22;10183;47.808;9.476;2023-03-26T00:40:08;5.70;99.90
20045;DHT22;10183;47.808;9.476;2023-03-26T00:42:37;5.60;99.90
20045;DHT22;10183;47.808;9.476;2023-03-26T00:45:05;5.50;99.90
20045;DHT22;10183;47.808;9.476;2023-03-26T00:47:32;5.50;99.90
20045;DHT22;10183;47.808;9.476;2023-03-26T00:49:58;5.50;99.90
20045;DHT22;10183;47.808;9.476;2023-03-26T00:52:25;5.60;99.90
20045;DHT22;10183;47.808;9.476;2023-03-26T00:54:54;5.70;99.90
20045;DHT22;10183;47.808;9.476;2023-03-26T00:57:21;5.60;99.90
20045;DHT22;10183;47.808;9.476;2023-03-26T00:59:48;5.70;99.90
20045;DHT22;10183;47.808;9.476;2023-03-26T01:02:17;5.80;99.90
20045;DHT22;10183;47.808;9.476;2023-03-26T01:04:45;5.70;99.90
20045;DHT22;10183;47.808;9.476;2023-03-26T01:07:15;5.80;99.90
20045;DHT22;10183;47.808;9.476;2023-03-26T01:09:48;5.90;99.90
20045;DHT22;10183;47.808;9.476;2023-03-26T01:12:21;5.80;99.90
20045;DHT22;10183;47.808;9.476;2023-03-26T01:14:53;5.80;99.90
20045;DHT22;10183;47.808;9.476;2023-03-26T01:17:22;5.90;99.90
20045;DHT22;10183;47.808;9.476;2023-03-26T01:22:20;6.00;99.90
20045;DHT22;10183;47.808;9.476;2023-03-26T01:24:47;6.00;99.90
20045;DHT22;10183;47.808;9.476;2023-03-26T01:27:25;6.00;99.90
20045;DHT22;10183;47.808;9.476;2023-03-26T01:30:14;6.00;99.90
20045;DHT22;10183;47.808;9.476;2023-03-26T01:33:05;6.10;99.90
20045;DHT22;10183;47.808;9.476;2023-03-26T01:36:07;6.00;99.90
20045;DHT22;10183;47.808;9.476;2023-03-26T01:38:58;6.20;99.90
20045;DHT22;10183;47.808;9.476;2023-03-26T01:41:47;6.20;99.90
20045;DHT22;10183;47.808;9.476;2023-03-26T01:46:41;6.20;99.90
20045;DHT22;10183;47.808;9.476;2023-03-26T01:49:08;6.10;99.90
20045;DHT22;10183;47.808;9.476;2023-03-26T01:51:40;6.20;99.90
20045;DHT22;10183;47.808;9.476;2023-03-26T01:54:12;6.10;99.90
20045;DHT22;10183;47.808;9.476;2023-03-26T02:09:34;6.00;99.90
20045;DHT22;10183;47.808;9.476;2023-03-26T02:12:03;6.00;99.90
20045;DHT22;10183;47.808;9.476;2023-03-26T02:14:30;6.00;99.90
20045;DHT22;10183;47.808;9.476;2023-03-26T02:16:57;5.90;99.90
20045;DHT22;10183;47.808;9.476;2023-03-26T02:19:25;5.90;99.90
20045;DHT22;10183;47.808;9.476;2023-03-26T02:21:51;5.90;99.90
20045;DHT22;10183;47.808;9.476;2023-03-26T02:24:18;6.00;99.90
20045;DHT22;10183;47.808;9.476;2023-03-26T02:26:45;5.90;99.90
20045;DHT22;10183;47.808;9.476;2023-03-26T02:29:14;5.90;99.90
20045;DHT22;10183;47.808;9.476;2023-03-26T02:31:45;5.80;99.90
20045;DHT22;10183;47.808;9.476;2023-03-26T02:34:15;5.80;99.90
20045;DHT22;10183;47.808;9.476;2023-03-26T02:36:41;5.70;99.90
20045;DHT22;10183;47.808;9.476;2023-03-26T02:39:09;5.70;99.90
20045;DHT22;10183;47.808;9.476;2023-03-26T02:41:37;5.70;99.90
20045;DHT22;10183;47.808;9.476;2023-03-26T02:44:03;5.80;99.90
20045;DHT22;10183;47.808;9.476;2023-03-26T02:46:32;5.80;99.90
20045;DHT22;10183;47.808;9.476;2023-03-26T02:48:58;5.90;99.90
20045;DHT22;10183;47.808;9.476;2023-03-26T02:51:25;5.90;99.90
20045;DHT22;10183;47.808;9.476;2023-03-26T02:53:52;5.80;99.90
20045;DHT22;10183;47.808;9.476;2023-03-26T02:56:18;5.70;99.90
20045;DHT22;10183;47.808;9.476;2023-03-26T02:58:44;5.60;99.90
20045;DHT22;10183;47.808;9.476;2023-03-26T03:01:12;5.60;99.90
20045;DHT22;10183;47.808;9.476;2023-03-26T03:03:38;5.50;99.90
20045;DHT22;10183;47.808;9.476;2023-03-26T03:06:04;5.60;99.90
20045;DHT22;10183;47.808;9.476;2023-03-26T03:08:30;5.50;99.90
20045;DHT22;10183;47.808;9.476;2023-03-26T03:10:58;5.60;99.90
20045;DHT22;10183;47.808;9.476;2023-03-26T03:13:25;5.50;99.90
20045;DHT22;10183;47.808;9.476;2023-03-26T03:15:52;5.60;99.90
20045;DHT22;10183;47.808;9.476;2023-03-26T03:18:18;5.60;99.90
20045;DHT22;10183;47.808;9.476;2023-03-26T03:20:44;5.60;99.90
20045;DHT22;10183;47.808;9.476;2023-03-26T03:23:11;5.60;99.90
20045;DHT22;10183;47.808;9.476;2023-03-26T03:25:37;5.60;99.90
20045;DHT22;10183;47.808;9.476;2023-03-26T03:28:04;5.70;99.90
20045;DHT22;10183;47.808;9.476;2023-03-26T03:30:30;5.70;99.90
20045;DHT22;10183;47.808;9.476;2023-03-26T03:32:56;5.70;99.90
20045;DHT22;10183;47.808;9.476;2023-03-26T03:35:24;5.80;99.90
20045;DHT22;10183;47.808;9.476;2023-03-26T03:37:50;5.80;99.90
20045;DHT22;10183;47.808;9.476;2023-03-26T03:40:16;5.80;99.90
20045;DHT22;10183;47.808;9.476;2023-03-26T03:42:42;5.80;99.90
20045;DHT22;10183;47.808;9.476;2023-03-26T03:45:09;5.70;99.90
20045;DHT22;10183;47.808;9.476;2023-03-26T03:47:35;5.70;99.90
20045;DHT22;10183;47.808;9.476;2023-03-26T03:50:02;5.70;99.90
20045;DHT22;10183;47.808;9.476;2023-03-26T03:52:29;5.70;99.90
20045;DHT22;10183;47.808;9.476;2023-03-26T03:54:55;5.70;99.90
20045;DHT22;10183;47.808;9.476;2023-03-26T03:57:22;5.70;99.90
20045;DHT22;10183;47.808;9.476;2023-03-26T03:59:49;5.70;99.90
20045;DHT22;10183;47.808;9.476;2023-03-26T04:02:15;5.70;99.90
20045;DHT22;10183;47.808;9.476;2023-03-26T04:05:03;5.70;99.90
20045;DHT22;10183;47.808;9.476;2023-03-26T04:07:31;5.70;99.90
20045;DHT22;10183;47.808;9.476;2023-03-26T04:09:58;5.70;99.90
20045;DHT22;10183;47.808;9.476;2023-03-26T04:12:28;5.70;99.90
20045;DHT22;10183;47.808;9.476;2023-03-26T04:14:55;5.70;99.90
20045;DHT22;10183;47.808;9.476;2023-03-26T04:17:21;5.70;99.90
20045;DHT22;10183;47.808;9.476;2023-03-26T04:19:49;5.80;99.90
20045;DHT22;10183;47.808;9.476;2023-03-26T04:22:18;5.80;99.90
20045;DHT22;10183;47.808;9.476;2023-03-26T04:24:44;5.90;99.90
20045;DHT22;10183;47.808;9.476;2023-03-26T04:27:14;5.90;99.90
20045;DHT22;10183;47.808;9.476;2023-03-26T04:29:44;6.00;99.90
20045;DHT22;10183;47.808;9.476;2023-03-26T04:32:21;5.90;99.90
20045;DHT22;10183;47.808;9.476;2023-03-26T04:34:49;6.00;99.90
20045;DHT22;10183;47.808;9.476;2023-03-26T04:37:26;5.90;99.90
20045;DHT22;10183;47.808;9.476;2023-03-26T04:39:53;5.90;99.90
20045;DHT22;10183;47.808;9.476;2023-03-26T04:42:20;5.80;99.90
20045;DHT22;10183;47.808;9.476;2023-03-26T04:44:47;5.60;99.90
20045;DHT22;10183;47.808;9.476;2023-03-26T04:47:18;5.60;99.90
20045;DHT22;10183;47.808;9.476;2023-03-26T04:49:45;5.60;99.90
20045;DHT22;10183;47.808;9.476;2023-03-26T04:52:13;5.60;99.90
20045;DHT22;10183;47.808;9.476;2023-03-26T04:54:40;5.60;99.90
20045;DHT22;10183;47.808;9.476;2023-03-26T04:57:18;5.50;99.90
20045;DHT22;10183;47.808;9.476;2023-03-26T04:59:46;5.50;99.90
20045;DHT22;10183;47.808;9.476;2023-03-26T05:02:12;5.50;99.90
20045;DHT22;10183;47.808;9.476;2023-03-26T05:04:38;5.50;99.90
20045;DHT22;10183;47.808;9.476;2023-03-26T05:07:05;5.50;99.90
20045;DHT22;10183;47.808;9.476;2023-03-26T05:09:32;5.40;99.90
20045;DHT22;10183;47.808;9.476;2023-03-26T05:11:58;5.40;99.90
20045;DHT22;10183;47.808;9.476;2023-03-26T05:14:24;5.30;99.90
20045;DHT22;10183;47.808;9.476;2023-03-26T05:16:50;5.30;99.90
20045;DHT22;10183;47.808;9.476;2023-03-26T05:19:18;5.40;99.90
20045;DHT22;10183;47.808;9.476;2023-03-26T05:21:44;5.30;99.90
20045;DHT22;10183;47.808;9.476;2023-03-26T05:24:10;5.30;99.90
20045;DHT22;10183;47.808;9.476;2023-03-26T05:26:37;5.30;99.90
20045;DHT22;10183;47.808;9.476;2023-03-26T05:29:03;5.30;99.90
20045;DHT22;10183;47.808;9.476;2023-03-26T05:31:30;5.30;99.90
20045;DHT22;10183;47.808;9.476;2023-03-26T05:33:57;5.30;99.90
20045;DHT22;10183;47.808;9.476;2023-03-26T05:36:25;5.40;99.90
20045;DHT22;10183;47.808;9.476;2023-03-26T05:38:53;5.50;99.90
20045;DHT22;10183;47.808;9.476;2023-03-26T05:41:19;5.50;99.90
20045;DHT22;10183;47.808;9.476;2023-03-26T05:43:45;5.50;99.90
20045;DHT22;10183;47.808;9.476;2023-03-26T05:46:13;5.50;99.90
20045;DHT22;10183;47.808;9.476;2023-03-26T05:48:39;5.40;99.90
20045;DHT22;10183;47.808;9.476;2023-03-26T05:51:06;5.30;99.90
20045;DHT22;10183;47.808;9.476;2023-03-26T05:53:32;5.30;99.90
20045;DHT22;10183;47.808;9.476;2023-03-26T05:55:59;5.40;99.90
20045;DHT22;10183;47.808;9.476;2023-03-26T05:58:27;5.50;99.90
20045;DHT22;10183;47.808;9.476;2023-03-26T06:03:27;5.50;99.90
20045;DHT22;10183;47.808;9.476;2023-03-26T06:05:53;5.40;99.90
20045;DHT22;10183;47.808;9.476;2023-03-26T06:08:20;5.40;99.90
20045;DHT22;10183;47.808;9.476;2023-03-26T06:10:47;5.40;99.90
20045;DHT22;10183;47.808;9.476;2023-03-26T06:13:14;5.40;99.90
20045;DHT22;10183;47.808;9.476;2023-03-26T06:15:42;5.50;99.90
20045;DHT22;10183;47.808;9.476;2023-03-26T06:18:08;5.40;99.90
20045;DHT22;10183;47.808;9.476;2023-03-26T06:20:35;5.40;99.90
20045;DHT22;10183;47.808;9.476;2023-03-26T06:23:02;5.30;99.90
20045;DHT22;10183;47.808;9.476;2023-03-26T06:25:30;5.30;99.90
20045;DHT22;10183;47.808;9.476;2023-03-26T06:27:57;5.30;99.90
20045;DHT22;10183;47.808;9.476;2023-03-26T06:30:23;5.40;99.90
20045;DHT22;10183;47.808;9.476;2023-03-26T06:32:49;5.40;99.90
20045;DHT22;10183;47.808;9.476;2023-03-26T06:35:15;5.40;99.90
20045;DHT22;10183;47.808;9.476;2023-03-26T06:37:42;5.40;99.90
20045;DHT22;10183;47.808;9.476;2023-03-26T06:40:08;5.40;99.90
20045;DHT22;10183;47.808;9.476;2023-03-26T06:42:35;5.50;99.90
20045;DHT22;10183;47.808;9.476;2023-03-26T06:45:01;5.50;99.90
20045;DHT22;10183;47.808;9.476;2023-03-26T06:47:27;5.50;99.90
20045;DHT22;10183;47.808;9.476;2023-03-26T06:49:54;5.50;99.90
20045;DHT22;10183;47.808;9.476;2023-03-26T06:52:20;5.60;99.90
20045;DHT22;10183;47.808;9.476;2023-03-26T06:54:46;5.70;99.90
20045;DHT22;10183;47.808;9.476;2023-03-26T06:57:12;5.80;99.90
20045;DHT22;10183;47.808;9.476;2023-03-26T06:59:38;5.80;99.90
20045;DHT22;10183;47.808;9.476;2023-03-26T07:02:05;5.90;99.90
20045;DHT22;10183;47.808;9.476;2023-03-26T07:04:31;5.80;99.90
20045;DHT22;10183;47.808;9.476;2023-03-26T07:06:57;5.80;99.90
20045;DHT22;10183;47.808;9.476;2023-03-26T07:09:23;5.80;99.90
20045;DHT22;10183;47.808;9.476;2023-03-26T07:11:51;5.70;99.90
20045;DHT22;10183;47.808;9.476;2023-03-26T07:14:17;5.70;99.90
20045;DHT22;10183;47.808;9.476;2023-03-26T07:16:43;5.70;99.90
20045;DHT22;10183;47.808;9.476;2023-03-26T07:19:09;5.70;99.90
20045;DHT22;10183;47.808;9.476;2023-03-26T07:21:35;5.80;99.90
20045;DHT22;10183;47.808;9.476;2023-03-26T07:24:02;5.90;99.90
20045;DHT22;10183;47.808;9.476;2023-03-26T07:26:39;5.80;99.90
20045;DHT22;10183;47.808;9.476;2023-03-26T07:34:54;5.70;99.90
20045;DHT22;10183;47.808;9.476;2023-03-26T07:45:56;5.70;99.90
20045;DHT22;10183;47.808;9.476;2023-03-26T07:48:26;5.60;99.90
20045;DHT22;10183;47.808;9.476;2023-03-26T07:50:55;5.50;99.90
20045;DHT22;10183;47.808;9.476;2023-03-26T07:53:21;5.50;99.90
20045;DHT22;10183;47.808;9.476;2023-03-26T07:56:06;5.50;99.90
20045;DHT22;10183;47.808;9.476;2023-03-26T08:01:31;5.40;99.90
20045;DHT22;10183;47.808;9.476;2023-03-26T08:07:02;5.40;99.90
20045;DHT22;10183;47.808;9.476;2023-03-26T08:12:26;5.60;99.90
20045;DHT22;10183;47.808;9.476;2023-03-26T08:15:04;5.70;99.90
20045;DHT22;10183;47.808;9.476;2023-03-26T08:17:48;5.80;99.90
20045;DHT22;10183;47.808;9.476;2023-03-26T08:20:31;5.70;99.90
20045;DHT22;10183;47.808;9.476;2023-03-26T08:23:13;5.70;99.90
20045;DHT22;10183;47.808;9.476;2023-03-26T08:25:56;5.90;99.90
20045;DHT22;10183;47.808;9.476;2023-03-26T08:28:33;5.90;99.90
20045;DHT22;10183;47.808;9.476;2023-03-26T08:31:03;6.00;99.90
20045;DHT22;10183;47.808;9.476;2023-03-26T08:33:29;6.00;99.90
20045;DHT22;10183;47.808;9.476;2023-03-26T08:35:56;6.10;99.90
20045;DHT22;10183;47.808;9.476;2023-03-26T08:38:22;6.00;99.90
20045;DHT22;10183;47.808;9.476;2023-03-26T09:01:25;5.80;99.90
20045;DHT22;10183;47.808;9.476;2023-03-26T09:04:30;5.80;99.90
20045;DHT22;10183;47.808;9.476;2023-03-26T09:10:18;5.70;99.90
20045;DHT22;10183;47.808;9.476;2023-03-26T09:19:29;5.80;99.90
20045;DHT22;10183;47.808;9.476;2023-03-26T09:40:57;5.90;99.90
20045;DHT22;10183;47.808;9.476;2023-03-26T10:14:26;6.30;99.90
20045;DHT22;10183;47.808;9.476;2023-03-26T10:28:09;6.70;99.90
20045;DHT22;10183;47.808;9.476;2023-03-26T10:34:14;6.90;99.90
20045;DHT22;10183;47.808;9.476;2023-03-26T10:39:42;7.00;99.90
20045;DHT22;10183;47.808;9.476;2023-03-26T10:45:31;7.30;99.90
20045;DHT22;10183;47.808;9.476;2023-03-26T10:48:15;7.60;99.90
20045;DHT22;10183;47.808;9.476;2023-03-26T10:53:42;7.90;99.90
20045;DHT22;10183;47.808;9.476;2023-03-26T10:58:50;8.40;99.90
20045;DHT22;10183;47.808;9.476;2023-03-26T11:07:33;8.10;99.90
20045;DHT22;10183;47.808;9.476;2023-03-26T11:15:34;7.80;99.90
20045;DHT22;10183;47.808;9.476;2023-03-26T11:18:43;7.80;99.90
20045;DHT22;10183;47.808;9.476;2023-03-26T11:21:23;7.80;99.90
20045;DHT22;10183;47.808;9.476;2023-03-26T11:29:29;8.10;99.90
20045;DHT22;10183;47.808;9.476;2023-03-26T11:32:14;8.10;99.90
20045;DHT22;10183;47.808;9.476;2023-03-26T11:35:14;8.40;99.90
20045;DHT22;10183;47.808;9.476;2023-03-26T11:37:51;8.40;99.90
20045;DHT22;10183;47.808;9.476;2023-03-26T11:40:31;8.50;99.90
20045;DHT22;10183;47.808;9.476;2023-03-26T11:43:05;8.40;99.90
20045;DHT22;10183;47.808;9.476;2023-03-26T11:45:35;8.30;99.90
20045;DHT22;10183;47.808;9.476;2023-03-26T11:48:21;8.40;99.90
20045;DHT22;10183;47.808;9.476;2023-03-26T11:50:56;8.40;99.90
20045;DHT22;10183;47.808;9.476;2023-03-26T11:53:28;8.30;99.90
20045;DHT22;10183;47.808;9.476;2023-03-26T11:56:01;8.40;99.90
20045;DHT22;10183;47.808;9.476;2023-03-26T12:01:03;8.60;99.90
20045;DHT22;10183;47.808;9.476;2023-03-26T12:03:29;8.70;99.90
20045;DHT22;10183;47.808;9.476;2023-03-26T12:05:58;8.80;99.90
20045;DHT22;10183;47.808;9.476;2023-03-26T12:08:33;8.70;99.90
20045;DHT22;10183;47.808;9.476;2023-03-26T12:11:08;8.70;99.90
20045;DHT22;10183;47.808;9.476;2023-03-26T12:13:41;9.00;99.90
20045;DHT22;10183;47.808;9.476;2023-03-26T12:16:14;9.00;99.90
20045;DHT22;10183;47.808;9.476;2023-03-26T12:18:42;9.00;99.90
20045;DHT22;10183;47.808;9.476;2023-03-26T12:23:59;9.10;99.90
20045;DHT22;10183;47.808;9.476;2023-03-26T12:26:40;9.30;99.90
20045;DHT22;10183;47.808;9.476;2023-03-26T12:29:11;9.30;99.90
20045;DHT22;10183;47.808;9.476;2023-03-26T12:32:13;9.80;99.90
20045;DHT22;10183;47.808;9.476;2023-03-26T12:34:39;10.70;99.90
20045;DHT22;10183;47.808;9.476;2023-03-26T12:37:14;11.10;99.90
20045;DHT22;10183;47.808;9.476;2023-03-26T12:43:23;10.30;99.90
20045;DHT22;10183;47.808;9.476;2023-03-26T12:45:54;10.60;99.90
20045;DHT22;10183;47.808;9.476;2023-03-26T12:48:21;11.30;99.90
20045;DHT22;10183;47.808;9.476;2023-03-26T12:51:29;10.90;99.90
20045;DHT22;10183;47.808;9.476;2023-03-26T13:02:17;11.10;99.90
20045;DHT22;10183;47.808;9.476;2023-03-26T13:05:04;11.40;99.90
20045;DHT22;10183;47.808;9.476;2023-03-26T13:13:28;12.90;99.90
20045;DHT22;10183;47.808;9.476;2023-03-26T13:16:23;11.80;99.90
20045;DHT22;10183;47.808;9.476;2023-03-26T13:21:26;10.30;99.90
20045;DHT22;10183;47.808;9.476;2023-03-26T13:24:00;9.90;99.90
20045;DHT22;10183;47.808;9.476;2023-03-26T13:29:25;9.30;99.90
20045;DHT22;10183;47.808;9.476;2023-03-26T13:32:31;8.90;99.90
20045;DHT22;10183;47.808;9.476;2023-03-26T13:35:37;8.10;99.90
20045;DHT22;10183;47.808;9.476;2023-03-26T13:38:12;7.10;99.90
20045;DHT22;10183;47.808;9.476;2023-03-26T13:43:31;9.40;99.90
20045;DHT22;10183;47.808;9.476;2023-03-26T13:48:41;8.00;99.90
20045;DHT22;10183;47.808;9.476;2023-03-26T13:51:11;7.80;99.90
20045;DHT22;10183;47.808;9.476;2023-03-26T13:53:58;7.70;99.90
20045;DHT22;10183;47.808;9.476;2023-03-26T13:56:34;7.70;99.90
20045;DHT22;10183;47.808;9.476;2023-03-26T13:59:11;7.80;99.90
20045;DHT22;10183;47.808;9.476;2023-03-26T14:01:45;8.10;99.90
20045;DHT22;10183;47.808;9.476;2023-03-26T14:04:43;9.40;99.90
20045;DHT22;10183;47.808;9.476;2023-03-26T14:10:09;10.30;99.90
20045;DHT22;10183;47.808;9.476;2023-03-26T14:15:21;8.50;99.90
20045;DHT22;10183;47.808;9.476;2023-03-26T14:31:38;7.90;99.90
20045;DHT22;10183;47.808;9.476;2023-03-26T14:42:52;7.10;99.90
20045;DHT22;10183;47.808;9.476;2023-03-26T14:53:36;7.10;99.90
20045;DHT22;10183;47.808;9.476;2023-03-26T15:00:01;7.30;99.90
20045;DHT22;10183;47.808;9.476;2023-03-26T15:31:54;7.00;99.90
20045;DHT22;10183;47.808;9.476;2023-03-26T15:34:33;7.10;99.90
20045;DHT22;10183;47.808;9.476;2023-03-26T15:43:04;6.90;99.90
20045;DHT22;10183;47.808;9.476;2023-03-26T15:45:40;6.30;99.90
20045;DHT22;10183;47.808;9.476;2023-03-26T16:00:11;5.20;99.90
20045;DHT22;10183;47.808;9.476;2023-03-26T16:04:57;5.00;99.90
20045;DHT22;10183;47.808;9.476;2023-03-26T16:07:35;5.10;99.90
20045;DHT22;10183;47.808;9.476;2023-03-26T16:15:37;5.00;99.90
20045;DHT22;10183;47.808;9.476;2023-03-26T16:21:35;5.00;99.90
20045;DHT22;10183;47.808;9.476;2023-03-26T16:29:23;5.00;99.90
20045;DHT22;10183;47.808;9.476;2023-03-26T16:45:42;5.00;99.90
20045;DHT22;10183;47.808;9.476;2023-03-26T16:51:07;5.00;99.90
20045;DHT22;10183;47.808;9.476;2023-03-26T16:54:11;5.10;99.90
20045;DHT22;10183;47.808;9.476;2023-03-26T16:57:09;5.10;99.90
20045;DHT22;10183;47.808;9.476;2023-03-26T17:02:32;5.10;99.90
20045;DHT22;10183;47.808;9.476;2023-03-26T17:16:47;5.20;99.90
20045;DHT22;10183;47.808;9.476;2023-03-26T17:19:21;5.20;99.90
20045;DHT22;10183;47.808;9.476;2023-03-26T17:24:47;5.20;99.90
20045;DHT22;10183;47.808;9.476;2023-03-26T17:32:57;5.10;99.90
20045;DHT22;10183;47.808;9.476;2023-03-26T17:35:36;5.00;99.90
20045;DHT22;10183;47.808;9.476;2023-03-26T17:40:57;4.80;99.90
20045;DHT22;10183;47.808;9.476;2023-03-26T17:43:46;4.70;99.90
20045;DHT22;10183;47.808;9.476;2023-03-26T17:54:34;4.40;99.90
20045;DHT22;10183;47.808;9.476;2023-03-26T17:57:19;4.40;99.90
20045;DHT22;10183;47.808;9.476;2023-03-26T17:59:48;4.40;99.90
20045;DHT22;10183;47.808;9.476;2023-03-26T18:02:19;4.40;99.90
20045;DHT22;10183;47.808;9.476;2023-03-26T18:04:48;4.40;99.90
20045;DHT22;10183;47.808;9.476;2023-03-26T18:13:07;4.30;99.90
20045;DHT22;10183;47.808;9.476;2023-03-26T18:15:49;4.40;99.90
20045;DHT22;10183;47.808;9.476;2023-03-26T18:20:58;4.40;99.90
20045;DHT22;10183;47.808;9.476;2023-03-26T18:23:37;4.30;99.90
20045;DHT22;10183;47.808;9.476;2023-03-26T18:26:13;4.30;99.90
20045;DHT22;10183;47.808;9.476;2023-03-26T18:28:43;4.30;99.90
20045;DHT22;10183;47.808;9.476;2023-03-26T18:33:48;4.40;99.90
20045;DHT22;10183;47.808;9.476;2023-03-26T18:36:16;4.40;99.90
20045;DHT22;10183;47.808;9.476;2023-03-26T18:38:44;4.30;99.90
20045;DHT22;10183;47.808;9.476;2023-03-26T18:41:21;4.30;99.90
20045;DHT22;10183;47.808;9.476;2023-03-26T18:43:48;4.30;99.90
20045;DHT22;10183;47.808;9.476;2023-03-26T18:46:14;4.30;99.90
20045;DHT22;10183;47.808;9.476;2023-03-26T18:48:42;4.30;99.90
20045;DHT22;10183;47.808;9.476;2023-03-26T18:51:09;4.30;99.90
20045;DHT22;10183;47.808;9.476;2023-03-26T18:53:44;4.30;99.90
20045;DHT22;10183;47.808;9.476;2023-03-26T18:56:27;4.30;99.90
20045;DHT22;10183;47.808;9.476;2023-03-26T18:58:59;4.30;99.90
20045;DHT22;10183;47.808;9.476;2023-03-26T19:01:30;4.30;99.90
20045;DHT22;10183;47.808;9.476;2023-03-26T19:03:58;4.20;99.90
20045;DHT22;10183;47.808;9.476;2023-03-26T19:06:27;4.30;99.90
20045;DHT22;10183;47.808;9.476;2023-03-26T19:08:54;4.30;99.90
20045;DHT22;10183;47.808;9.476;2023-03-26T19:11:21;4.30;99.90
20045;DHT22;10183;47.808;9.476;2023-03-26T19:14:12;4.30;99.90
20045;DHT22;10183;47.808;9.476;2023-03-26T19:16:39;4.30;99.90
20045;DHT22;10183;47.808;9.476;2023-03-26T19:19:14;4.20;99.90
20045;DHT22;10183;47.808;9.476;2023-03-26T19:21:41;4.30;99.90
20045;DHT22;10183;47.808;9.476;2023-03-26T19:24:09;4.30;99.90
20045;DHT22;10183;47.808;9.476;2023-03-26T19:26:36;4.30;99.90
20045;DHT22;10183;47.808;9.476;2023-03-26T19:29:03;4.30;99.90
20045;DHT22;10183;47.808;9.476;2023-03-26T19:31:36;4.30;99.90
20045;DHT22;10183;47.808;9.476;2023-03-26T19:37:00;4.20;99.90
20045;DHT22;10183;47.808;9.476;2023-03-26T19:39:41;4.20;99.90
20045;DHT22;10183;47.808;9.476;2023-03-26T19:42:33;4.20;99.90
20045;DHT22;10183;47.808;9.476;2023-03-26T19:45:02;4.20;99.90
20045;DHT22;10183;47.808;9.476;2023-03-26T19:47:39;4.20;99.90
20045;DHT22;10183;47.808;9.476;2023-03-26T19:50:20;4.20;99.90
20045;DHT22;10183;47.808;9.476;2023-03-26T19:55:38;4.10;99.90
20045;DHT22;10183;47.808;9.476;2023-03-26T19:58:05;4.10;99.90
20045;DHT22;10183;47.808;9.476;2023-03-26T20:00:33;4.10;99.90
20045;DHT22;10183;47.808;9.476;2023-03-26T20:03:00;4.00;99.90
20045;DHT22;10183;47.808;9.476;2023-03-26T20:05:30;4.00;99.90
20045;DHT22;10183;47.808;9.476;2023-03-26T20:07:58;4.00;99.90
20045;DHT22;10183;47.808;9.476;2023-03-26T20:10:26;3.90;99.90
20045;DHT22;10183;47.808;9.476;2023-03-26T20:12:52;3.90;99.90
20045;DHT22;10183;47.808;9.476;2023-03-26T20:15:24;3.80;99.90
20045;DHT22;10183;47.808;9.476;2023-03-26T20:17:50;3.80;99.90
20045;DHT22;10183;47.808;9.476;2023-03-26T20:20:21;3.80;99.90
20045;DHT22;10183;47.808;9.476;2023-03-26T20:22:52;3.80;99.90
20045;DHT22;10183;47.808;9.476;2023-03-26T20:25:23;3.70;99.90
20045;DHT22;10183;47.808;9.476;2023-03-26T20:27:51;3.70;99.90
20045;DHT22;10183;47.808;9.476;2023-03-26T20:30:21;3.70;99.90
20045;DHT22;10183;47.808;9.476;2023-03-26T20:32:49;3.70;99.90
20045;DHT22;10183;47.808;9.476;2023-03-26T20:35:21;3.60;99.90
20045;DHT22;10183;47.808;9.476;2023-03-26T20:37:47;3.70;99.90
20045;DHT22;10183;47.808;9.476;2023-03-26T20:40:14;3.70;99.90
20045;DHT22;10183;47.808;9.476;2023-03-26T20:42:41;3.70;99.90
20045;DHT22;10183;47.808;9.476;2023-03-26T20:45:16;3.70;99.90
20045;DHT22;10183;47.808;9.476;2023-03-26T20:47:44;3.80;99.90
20045;DHT22;10183;47.808;9.476;2023-03-26T20:50:12;3.80;99.90
20045;DHT22;10183;47.808;9.476;2023-03-26T20:52:39;3.80;99.90
20045;DHT22;10183;47.808;9.476;2023-03-26T20:55:08;3.80;99.90
20045;DHT22;10183;47.808;9.476;2023-03-26T20:57:36;3.80;99.90
20045;DHT22;10183;47.808;9.476;2023-03-26T21:00:10;3.80;99.90
20045;DHT22;10183;47.808;9.476;2023-03-26T21:02:42;3.70;99.90
20045;DHT22;10183;47.808;9.476;2023-03-26T21:05:11;3.70;99.90
20045;DHT22;10183;47.808;9.476;2023-03-26T21:07:43;3.70;99.90
20045;DHT22;10183;47.808;9.476;2023-03-26T21:10:11;3.60;99.90
20045;DHT22;10183;47.808;9.476;2023-03-26T21:13:01;3.60;99.90
20045;DHT22;10183;47.808;9.476;2023-03-26T21:15:30;3.60;99.90
20045;DHT22;10183;47.808;9.476;2023-03-26T21:17:57;3.60;99.90
20045;DHT22;10183;47.808;9.476;2023-03-26T21:20:24;3.50;99.90
20045;DHT22;10183;47.808;9.476;2023-03-26T21:23:23;3.50;99.90
20045;DHT22;10183;47.808;9.476;2023-03-26T21:31:16;3.50;99.90
20045;DHT22;10183;47.808;9.476;2023-03-26T21:33:46;3.60;99.90
20045;DHT22;10183;47.808;9.476;2023-03-26T21:36:16;3.50;99.90
20045;DHT22;10183;47.808;9.476;2023-03-26T21:38:44;3.50;99.90
20045;DHT22;10183;47.808;9.476;2023-03-26T21:41:38;3.40;99.90
20045;DHT22;10183;47.808;9.476;2023-03-26T21:44:07;3.40;99.90
20045;DHT22;10183;47.808;9.476;2023-03-26T21:46:33;3.50;99.90
20045;DHT22;10183;47.808;9.476;2023-03-26T21:49:00;3.60;99.90
20045;DHT22;10183;47.808;9.476;2023-03-26T21:51:27;3.60;99.90
20045;DHT22;10183;47.808;9.476;2023-03-26T21:53:54;3.60;99.90
20045;DHT22;10183;47.808;9.476;2023-03-26T21:56:26;3.60;99.90
20045;DHT22;10183;47.808;9.476;2023-03-26T22:02:21;3.70;99.90
20045;DHT22;10183;47.808;9.476;2023-03-26T22:05:12;3.80;99.90
20045;DHT22;10183;47.808;9.476;2023-03-26T22:07:55;3.90;99.90
20045;DHT22;10183;47.808;9.476;2023-03-26T22:10:22;3.90;99.90
20045;DHT22;10183;47.808;9.476;2023-03-26T22:12:48;3.80;99.90
20045;DHT22;10183;47.808;9.476;2023-03-26T22:15:15;3.90;99.90
20045;DHT22;10183;47.808;9.476;2023-03-26T22:17:44;3.80;99.90
20045;DHT22;10183;47.808;9.476;2023-03-26T22:20:13;3.90;99.90
20045;DHT22;10183;47.808;9.476;2023-03-26T22:22:41;3.90;99.90
20045;DHT22;10183;47.808;9.476;2023-03-26T22:25:17;4.00;99.90
20045;DHT22;10183;47.808;9.476;2023-03-26T22:27:44;3.90;99.90
20045;DHT22;10183;47.808;9.476;2023-03-26T22:30:12;3.90;99.90
20045;DHT22;10183;47.808;9.476;2023-03-26T22:32:39;4.00;99.90